sensor_id;sensor_type;location;lat;lon;timestamp;pressure;altitude;pressure_sealevel;temperature;humidity
42511;BME280;28141;51.120;17.114;2022-11-20T00:02:26;101321.34;;;23.22;22.83
42511;BME280;28141;51.120;17.114;2022-11-20T00:05:32;101320.49;;;23.21;22.92
42511;BME280;28141;51.120;17.114;2022-11-20T00:08:36;101313.23;;;23.27;23.37
42511;BME280;28141;51.120;17.114;2022-11-20T00:11:39;101307.73;;;23.20;22.86
42511;BME280;28141;51.120;17.114;2022-11-20T00:15:13;101315.20;;;23.13;23.06
42511;BME280;28141;51.120;17.114;2022-11-20T00:18:16;101308.81;;;23.13;23.13
42511;BME280;28141;51.120;17.114;2022-11-20T00:21:21;101321.76;;;23.19;23.21
42511;BME280;28141;51.120;17.114;2022-11-20T00:24:24;101325.59;;;23.18;23.12
42511;BME280;28141;51.120;17.114;2022-11-20T00:27:28;101319.85;;;23.19;23.10
42511;BME280;28141;51.120;17.114;2022-11-20T00:30:31;101320.27;;;23.16;23.14
42511;BME280;28141;51.120;17.114;2022-11-20T00:33:34;101325.37;;;23.19;23.03
42511;BME280;28141;51.120;17.114;2022-11-20T00:36:38;101322.42;;;23.14;23.15
42511;BME280;28141;51.120;17.114;2022-11-20T00:39:41;101320.73;;;23.13;22.81
42511;BME280;28141;51.120;17.114;2022-11-20T00:42:45;101314.77;;;23.10;23.26
42511;BME280;28141;51.120;17.114;2022-11-20T00:45:48;101316.05;;;23.14;22.95
42511;BME280;28141;51.120;17.114;2022-11-20T00:48:51;101318.57;;;23.15;23.08
42511;BME280;28141;51.120;17.114;2022-11-20T00:51:54;101320.73;;;23.13;23.14
42511;BME280;28141;51.120;17.114;2022-11-20T00:54:58;101328.36;;;23.05;23.34
42511;BME280;28141;51.120;17.114;2022-11-20T00:58:01;101323.48;;;23.07;22.81
42511;BME280;28141;51.120;17.114;2022-11-20T01:01:07;101339.41;;;23.05;22.90
42511;BME280;28141;51.120;17.114;2022-11-20T01:04:10;101341.13;;;23.12;23.23
42511;BME280;28141;51.120;17.114;2022-11-20T01:07:14;101334.11;;;23.10;23.06
42511;BME280;28141;51.120;17.114;2022-11-20T01:10:17;101336.65;;;23.05;23.13
42511;BME280;28141;51.120;17.114;2022-11-20T01:13:21;101325.20;;;23.01;23.02
42511;BME280;28141;51.120;17.114;2022-11-20T01:16:39;101335.61;;;22.99;23.19
42511;BME280;28141;51.120;17.114;2022-11-20T01:19:43;101333.91;;;22.98;23.03
42511;BME280;28141;51.120;17.114;2022-11-20T01:23:15;101341.11;;;23.06;23.07
42511;BME280;28141;51.120;17.114;2022-11-20T01:26:24;101336.65;;;23.05;22.90
42511;BME280;28141;51.120;17.114;2022-11-20T01:29:28;101328.79;;;23.08;23.42
42511;BME280;28141;51.120;17.114;2022-11-20T01:32:31;101335.80;;;23.04;23.05
42511;BME280;28141;51.120;17.114;2022-11-20T01:35:35;101324.75;;;23.04;23.19
42511;BME280;28141;51.120;17.114;2022-11-20T01:38:38;101330.91;;;23.06;23.05
42511;BME280;28141;51.120;17.114;2022-11-20T01:41:42;101332.20;;;23.10;23.12
42511;BME280;28141;51.120;17.114;2022-11-20T01:44:59;101326.69;;;22.97;23.19
42511;BME280;28141;51.120;17.114;2022-11-20T01:48:03;101331.36;;;22.97;22.85
42511;BME280;28141;51.120;17.114;2022-11-20T01:51:32;101327.51;;;23.04;22.85
42511;BME280;28141;51.120;17.114;2022-11-20T01:55:04;101330.52;;;23.03;23.03
42511;BME280;28141;51.120;17.114;2022-11-20T01:58:04;101323.07;;;22.97;22.98
42511;BME280;28141;51.120;17.114;2022-11-20T02:01:08;101317.09;;;23.06;22.90
42511;BME280;28141;51.120;17.114;2022-11-20T02:04:13;101318.16;;;23.05;22.92
42511;BME280;28141;51.120;17.114;2022-11-20T02:07:17;101320.50;;;23.08;22.80
42511;BME280;28141;51.120;17.114;2022-11-20T02:10:22;101311.37;;;23.08;23.16
42511;BME280;28141;51.120;17.114;2022-11-20T02:13:25;101317.09;;;23.06;23.14
42511;BME280;28141;51.120;17.114;2022-11-20T02:16:45;101319.68;;;22.88;22.88
42511;BME280;28141;51.120;17.114;2022-11-20T02:20:16;101321.56;;;22.94;23.03
42511;BME280;28141;51.120;17.114;2022-11-20T02:23:31;101317.15;;;22.80;23.05
42511;BME280;28141;51.120;17.114;2022-11-20T02:29:57;101307.56;;;22.82;23.15
42511;BME280;28141;51.120;17.114;2022-11-20T02:33:02;101311.37;;;22.94;23.11
42511;BME280;28141;51.120;17.114;2022-11-20T02:36:09;101320.33;;;22.90;22.86
42511;BME280;28141;51.120;17.114;2022-11-20T02:39:40;101325.41;;;23.00;22.98
42511;BME280;28141;51.120;17.114;2022-11-20T02:42:45;101310.52;;;22.94;22.75
42511;BME280;28141;51.120;17.114;2022-11-20T02:45:48;101322.44;;;22.88;22.94
42511;BME280;28141;51.120;17.114;2022-11-20T02:48:51;101321.56;;;22.94;22.97
42511;BME280;28141;51.120;17.114;2022-11-20T02:51:55;101322.88;;;22.91;22.90
42511;BME280;28141;51.120;17.114;2022-11-20T02:54:58;101316.07;;;22.87;23.08
42511;BME280;28141;51.120;17.114;2022-11-20T02:58:01;101321.56;;;22.94;22.96
42511;BME280;28141;51.120;17.114;2022-11-20T03:01:04;101309.89;;;22.99;23.00
42511;BME280;28141;51.120;17.114;2022-11-20T03:04:08;101317.33;;;22.98;23.10
42511;BME280;28141;51.120;17.114;2022-11-20T03:07:11;101315.41;;;22.85;22.76
42511;BME280;28141;51.120;17.114;2022-11-20T03:10:15;101316.92;;;22.88;22.93
42511;BME280;28141;51.120;17.114;2022-11-20T03:13:18;101317.13;;;22.86;22.97
42511;BME280;28141;51.120;17.114;2022-11-20T03:16:22;101308.63;;;22.88;23.20
42511;BME280;28141;51.120;17.114;2022-11-20T03:19:54;101306.72;;;22.88;22.98
42511;BME280;28141;51.120;17.114;2022-11-20T03:22:57;101309.69;;;22.87;22.80
42511;BME280;28141;51.120;17.114;2022-11-20T03:29:17;101305.44;;;22.71;23.08
42511;BME280;28141;51.120;17.114;2022-11-20T03:32:20;101312.88;;;22.77;23.05
42511;BME280;28141;51.120;17.114;2022-11-20T03:35:23;101307.13;;;22.85;22.81
42511;BME280;28141;51.120;17.114;2022-11-20T03:38:29;101314.12;;;22.75;22.86
42511;BME280;28141;51.120;17.114;2022-11-20T03:41:40;101309.91;;;22.79;23.04
42511;BME280;28141;51.120;17.114;2022-11-20T03:44:45;101308.80;;;22.73;23.16
42511;BME280;28141;51.120;17.114;2022-11-20T03:47:49;101306.51;;;22.77;22.85
42511;BME280;28141;51.120;17.114;2022-11-20T03:51:23;101310.51;;;22.74;23.02
42511;BME280;28141;51.120;17.114;2022-11-20T03:54:27;101305.84;;;22.75;22.80
42511;BME280;28141;51.120;17.114;2022-11-20T03:57:30;101309.86;;;22.72;23.01
42511;BME280;28141;51.120;17.114;2022-11-20T04:00:34;101316.50;;;22.78;23.11
42511;BME280;28141;51.120;17.114;2022-11-20T04:03:39;101314.80;;;22.77;23.09
42511;BME280;28141;51.120;17.114;2022-11-20T04:06:43;101295.86;;;22.67;23.18
42511;BME280;28141;51.120;17.114;2022-11-20T04:09:46;101315.20;;;22.67;22.88
42511;BME280;28141;51.120;17.114;2022-11-20T04:12:49;101321.34;;;22.63;22.94
42511;BME280;28141;51.120;17.114;2022-11-20T04:15:57;101320.70;;;22.74;23.02
42511;BME280;28141;51.120;17.114;2022-11-20T04:19:03;101331.37;;;22.77;22.76
42511;BME280;28141;51.120;17.114;2022-11-20T04:22:06;101334.34;;;22.75;22.82
42511;BME280;28141;51.120;17.114;2022-11-20T04:25:11;101332.60;;;22.74;22.94
42511;BME280;28141;51.120;17.114;2022-11-20T04:28:43;101328.19;;;22.80;22.92
42511;BME280;28141;51.120;17.114;2022-11-20T04:31:46;101321.16;;;22.71;22.93
42511;BME280;28141;51.120;17.114;2022-11-20T04:34:49;101319.46;;;22.76;22.74
42511;BME280;28141;51.120;17.114;2022-11-20T04:37:52;101322.39;;;22.62;22.71
42511;BME280;28141;51.120;17.114;2022-11-20T04:40:58;101310.31;;;22.69;23.22
42511;BME280;28141;51.120;17.114;2022-11-20T04:44:03;101314.53;;;22.72;22.76
42511;BME280;28141;51.120;17.114;2022-11-20T04:47:07;101297.13;;;22.65;22.97
42511;BME280;28141;51.120;17.114;2022-11-20T04:50:11;101299.48;;;22.68;22.91
42511;BME280;28141;51.120;17.114;2022-11-20T04:53:14;101292.45;;;22.72;22.88
42511;BME280;28141;51.120;17.114;2022-11-20T04:56:18;101301.16;;;22.62;22.82
42511;BME280;28141;51.120;17.114;2022-11-20T04:59:22;101304.98;;;22.61;22.94
42511;BME280;28141;51.120;17.114;2022-11-20T05:02:25;101302.01;;;22.63;23.14
42511;BME280;28141;51.120;17.114;2022-11-20T05:05:29;101303.30;;;22.67;23.08
42511;BME280;28141;51.120;17.114;2022-11-20T05:08:58;101298.63;;;22.67;22.93
42511;BME280;28141;51.120;17.114;2022-11-20T05:12:02;101284.18;;;22.65;23.23
42511;BME280;28141;51.120;17.114;2022-11-20T05:15:06;101281.20;;;22.67;22.70
42511;BME280;28141;51.120;17.114;2022-11-20T05:18:09;101283.76;;;22.68;22.93
42511;BME280;28141;51.120;17.114;2022-11-20T05:21:13;101274.19;;;22.64;23.06
42511;BME280;28141;51.120;17.114;2022-11-20T05:24:16;101271.23;;;22.59;23.01
42511;BME280;28141;51.120;17.114;2022-11-20T05:27:20;101269.32;;;22.60;23.19
42511;BME280;28141;51.120;17.114;2022-11-20T05:30:23;101275.05;;;22.58;22.78
42511;BME280;28141;51.120;17.114;2022-11-20T05:33:26;101271.00;;;22.61;22.94
42511;BME280;28141;51.120;17.114;2022-11-20T05:36:30;101283.32;;;22.65;23.16
42511;BME280;28141;51.120;17.114;2022-11-20T05:39:33;101284.19;;;22.58;23.08
42511;BME280;28141;51.120;17.114;2022-11-20T05:42:36;101277.38;;;22.54;23.01
42511;BME280;28141;51.120;17.114;2022-11-20T05:45:40;101272.50;;;22.56;23.24
42511;BME280;28141;51.120;17.114;2022-11-20T05:48:44;101263.58;;;22.54;23.00
42511;BME280;28141;51.120;17.114;2022-11-20T05:51:47;101266.98;;;22.56;22.84
42511;BME280;28141;51.120;17.114;2022-11-20T05:55:17;101270.57;;;22.50;22.96
42511;BME280;28141;51.120;17.114;2022-11-20T05:58:21;101261.02;;;22.53;22.84
42511;BME280;28141;51.120;17.114;2022-11-20T06:01:25;101271.45;;;22.57;22.83
42511;BME280;28141;51.120;17.114;2022-11-20T06:04:29;101268.02;;;22.62;22.95
42511;BME280;28141;51.120;17.114;2022-11-20T06:07:32;101262.52;;;22.55;22.74
42511;BME280;28141;51.120;17.114;2022-11-20T06:10:35;101269.30;;;22.53;22.88
42511;BME280;28141;51.120;17.114;2022-11-20T06:13:39;101265.92;;;22.57;22.86
42511;BME280;28141;51.120;17.114;2022-11-20T06:16:42;101264.22;;;22.56;22.96
42511;BME280;28141;51.120;17.114;2022-11-20T06:19:46;101259.33;;;22.45;22.86
42511;BME280;28141;51.120;17.114;2022-11-20T06:22:49;101259.53;;;22.50;22.86
42511;BME280;28141;51.120;17.114;2022-11-20T06:25:52;101253.59;;;22.53;22.99
42511;BME280;28141;51.120;17.114;2022-11-20T06:28:56;101254.00;;;22.50;22.94
42511;BME280;28141;51.120;17.114;2022-11-20T06:31:59;101253.79;;;22.52;22.76
42511;BME280;28141;51.120;17.114;2022-11-20T06:35:33;101256.13;;;22.42;22.94
42511;BME280;28141;51.120;17.114;2022-11-20T06:38:37;101255.50;;;22.53;22.58
42511;BME280;28141;51.120;17.114;2022-11-20T06:41:41;101249.35;;;22.57;22.88
42511;BME280;28141;51.120;17.114;2022-11-20T06:44:44;101242.98;;;22.57;22.77
42511;BME280;28141;51.120;17.114;2022-11-20T06:47:48;101251.47;;;22.55;22.93
42511;BME280;28141;51.120;17.114;2022-11-20T06:50:51;101245.73;;;22.50;22.86
42511;BME280;28141;51.120;17.114;2022-11-20T06:53:54;101256.34;;;22.53;22.86
42511;BME280;28141;51.120;17.114;2022-11-20T06:56:58;101254.42;;;22.61;22.76
42511;BME280;28141;51.120;17.114;2022-11-20T07:00:01;101258.27;;;22.60;22.74
42511;BME280;28141;51.120;17.114;2022-11-20T07:03:05;101261.22;;;22.51;22.79
42511;BME280;28141;51.120;17.114;2022-11-20T07:06:08;101264.22;;;22.56;22.53
42511;BME280;28141;51.120;17.114;2022-11-20T07:09:12;101269.32;;;22.60;22.85
42511;BME280;28141;51.120;17.114;2022-11-20T07:12:49;101272.27;;;22.51;22.81
42511;BME280;28141;51.120;17.114;2022-11-20T07:15:53;101265.47;;;22.61;22.75
42511;BME280;28141;51.120;17.114;2022-11-20T07:18:57;101262.71;;;22.61;22.97
42511;BME280;28141;51.120;17.114;2022-11-20T07:22:00;101255.30;;;22.68;22.52
42511;BME280;28141;51.120;17.114;2022-11-20T07:25:04;101258.89;;;22.62;22.76
42511;BME280;28141;51.120;17.114;2022-11-20T07:28:08;101255.70;;;22.65;22.81
42511;BME280;28141;51.120;17.114;2022-11-20T07:31:13;101250.63;;;22.68;22.85
42511;BME280;28141;51.120;17.114;2022-11-20T07:34:17;101247.01;;;22.68;22.92
42511;BME280;28141;51.120;17.114;2022-11-20T07:37:20;101251.66;;;22.74;22.85
42511;BME280;28141;51.120;17.114;2022-11-20T07:40:54;101250.18;;;22.65;22.71
42511;BME280;28141;51.120;17.114;2022-11-20T07:43:59;101252.51;;;22.74;22.59
42511;BME280;28141;51.120;17.114;2022-11-20T07:47:02;101244.24;;;22.68;22.76
42511;BME280;28141;51.120;17.114;2022-11-20T07:50:06;101245.54;;;22.78;22.47
42511;BME280;28141;51.120;17.114;2022-11-20T07:53:10;101235.10;;;22.87;22.67
42511;BME280;28141;51.120;17.114;2022-11-20T07:56:16;101229.82;;;22.79;22.49
42511;BME280;28141;51.120;17.114;2022-11-20T07:59:19;101231.06;;;22.83;22.39
42511;BME280;28141;51.120;17.114;2022-11-20T08:02:23;101234.46;;;22.85;22.79
42511;BME280;28141;51.120;17.114;2022-11-20T08:05:26;101233.63;;;22.91;22.50
42511;BME280;28141;51.120;17.114;2022-11-20T08:08:30;101228.95;;;22.85;22.51
42511;BME280;28141;51.120;17.114;2022-11-20T08:11:59;101236.60;;;22.89;22.66
42511;BME280;28141;51.120;17.114;2022-11-20T08:15:16;101231.31;;;22.81;22.54
42511;BME280;28141;51.120;17.114;2022-11-20T08:18:19;101233.63;;;22.91;22.58
42511;BME280;28141;51.120;17.114;2022-11-20T08:21:22;101235.94;;;22.94;22.66
42511;BME280;28141;51.120;17.114;2022-11-20T08:24:26;101232.33;;;23.00;22.65
42511;BME280;28141;51.120;17.114;2022-11-20T08:27:31;101224.04;;;23.00;22.63
42511;BME280;28141;51.120;17.114;2022-11-20T08:30:36;101225.73;;;23.01;22.71
42511;BME280;28141;51.120;17.114;2022-11-20T08:33:40;101215.07;;;23.05;22.46
42511;BME280;28141;51.120;17.114;2022-11-20T08:36:44;101209.34;;;23.06;22.69
42511;BME280;28141;51.120;17.114;2022-11-20T08:39:47;101210.18;;;23.13;22.64
42511;BME280;28141;51.120;17.114;2022-11-20T08:42:51;101206.53;;;23.19;22.36
42511;BME280;28141;51.120;17.114;2022-11-20T08:46:24;101208.23;;;23.20;22.48
42511;BME280;28141;51.120;17.114;2022-11-20T08:49:28;101203.51;;;23.34;22.69
42511;BME280;28141;51.120;17.114;2022-11-20T08:52:31;101210.49;;;23.37;22.75
42511;BME280;28141;51.120;17.114;2022-11-20T08:55:35;101204.10;;;23.43;22.42
42511;BME280;28141;51.120;17.114;2022-11-20T08:58:39;101205.38;;;23.47;22.22
42511;BME280;28141;51.120;17.114;2022-11-20T09:01:43;101197.28;;;23.52;22.41
42511;BME280;28141;51.120;17.114;2022-11-20T09:04:47;101200.46;;;23.55;22.53
42511;BME280;28141;51.120;17.114;2022-11-20T09:07:50;101190.47;;;23.54;22.50
42511;BME280;28141;51.120;17.114;2022-11-20T09:10:56;101188.13;;;23.51;22.55
42511;BME280;28141;51.120;17.114;2022-11-20T09:14:00;101190.84;;;23.58;22.39
42511;BME280;28141;51.120;17.114;2022-11-20T09:17:07;101185.08;;;23.66;22.38
42511;BME280;28141;51.120;17.114;2022-11-20T09:20:10;101194.62;;;23.70;22.17
42511;BME280;28141;51.120;17.114;2022-11-20T09:23:14;101183.05;;;23.80;21.92
42511;BME280;28141;51.120;17.114;2022-11-20T09:26:17;101178.63;;;23.79;22.15
42511;BME280;28141;51.120;17.114;2022-11-20T09:29:22;101178.21;;;23.75;22.10
42511;BME280;28141;51.120;17.114;2022-11-20T09:32:25;101179.01;;;23.82;22.11
42511;BME280;28141;51.120;17.114;2022-11-20T09:35:28;101178.34;;;23.87;22.50
42511;BME280;28141;51.120;17.114;2022-11-20T09:38:32;101168.13;;;23.87;22.25
42511;BME280;28141;51.120;17.114;2022-11-20T09:42:01;101169.83;;;23.88;22.31
42511;BME280;28141;51.120;17.114;2022-11-20T09:48:48;101167.66;;;23.90;22.12
42511;BME280;28141;51.120;17.114;2022-11-20T09:52:00;101156.59;;;23.90;21.86
42511;BME280;28141;51.120;17.114;2022-11-20T09:55:08;101149.33;;;23.96;22.31
42511;BME280;28141;51.120;17.114;2022-11-20T10:01:35;101138.20;;;24.02;21.96
42511;BME280;28141;51.120;17.114;2022-11-20T10:04:51;101137.31;;;24.09;21.93
42511;BME280;28141;51.120;17.114;2022-11-20T10:11:20;101132.15;;;24.12;21.98
42511;BME280;28141;51.120;17.114;2022-11-20T10:31:51;101106.48;;;24.30;21.79
42511;BME280;28141;51.120;17.114;2022-11-20T10:35:04;101103.02;;;24.34;21.79
42511;BME280;28141;51.120;17.114;2022-11-20T10:38:21;101104.93;;;24.34;21.85
42511;BME280;28141;51.120;17.114;2022-11-20T10:41:40;101104.44;;;24.44;21.77
42511;BME280;28141;51.120;17.114;2022-11-20T10:45:15;101099.57;;;24.39;21.85
42511;BME280;28141;51.120;17.114;2022-11-20T10:48:22;101102.16;;;24.34;21.94
42511;BME280;28141;51.120;17.114;2022-11-20T10:54:56;101094.44;;;24.43;21.98
42511;BME280;28141;51.120;17.114;2022-11-20T10:58:08;101091.81;;;24.48;21.92
42511;BME280;28141;51.120;17.114;2022-11-20T11:01:42;101093.27;;;24.50;21.83
42511;BME280;28141;51.120;17.114;2022-11-20T11:04:52;101097.30;;;24.54;21.76
42511;BME280;28141;51.120;17.114;2022-11-20T11:07:57;101086.80;;;24.56;21.79
42511;BME280;28141;51.120;17.114;2022-11-20T11:14:15;101078.05;;;24.59;21.69
42511;BME280;28141;51.120;17.114;2022-11-20T11:17:32;101074.49;;;24.70;21.64
42511;BME280;28141;51.120;17.114;2022-11-20T11:20:35;101075.20;;;24.48;21.58
42511;BME280;28141;51.120;17.114;2022-11-20T11:27:21;101074.83;;;24.44;22.01
42511;BME280;28141;51.120;17.114;2022-11-20T11:30:25;101069.20;;;24.51;21.70
42511;BME280;28141;51.120;17.114;2022-11-20T11:33:32;101058.52;;;24.54;21.84
42511;BME280;28141;51.120;17.114;2022-11-20T11:36:39;101058.43;;;24.61;21.65
42511;BME280;28141;51.120;17.114;2022-11-20T11:39:44;101043.56;;;24.55;21.77
42511;BME280;28141;51.120;17.114;2022-11-20T11:42:54;101036.95;;;24.56;21.71
42511;BME280;28141;51.120;17.114;2022-11-20T11:46:35;101040.34;;;24.58;21.85
42511;BME280;28141;51.120;17.114;2022-11-20T11:49:39;101036.66;;;24.64;22.13
42511;BME280;28141;51.120;17.114;2022-11-20T11:52:51;101038.58;;;24.64;21.75
42511;BME280;28141;51.120;17.114;2022-11-20T11:56:07;101026.88;;;24.62;21.89
42511;BME280;28141;51.120;17.114;2022-11-20T12:03:03;101023.40;;;24.66;21.81
42511;BME280;28141;51.120;17.114;2022-11-20T12:06:13;101013.27;;;24.60;21.75
42511;BME280;28141;51.120;17.114;2022-11-20T12:09:18;101015.25;;;24.71;21.80
42511;BME280;28141;51.120;17.114;2022-11-20T12:12:29;101008.77;;;24.78;21.40
42511;BME280;28141;51.120;17.114;2022-11-20T12:15:35;101006.61;;;24.80;21.70
42511;BME280;28141;51.120;17.114;2022-11-20T12:19:09;101010.00;;;24.82;21.74
42511;BME280;28141;51.120;17.114;2022-11-20T12:25:35;101007.23;;;24.82;21.72
42511;BME280;28141;51.120;17.114;2022-11-20T12:32:31;101002.86;;;24.92;21.64
42511;BME280;28141;51.120;17.114;2022-11-20T12:39:02;101000.27;;;24.91;21.58
42511;BME280;28141;51.120;17.114;2022-11-20T12:49:28;101006.01;;;24.96;21.46
42511;BME280;28141;51.120;17.114;2022-11-20T13:06:26;100978.89;;;25.39;21.48
42511;BME280;28141;51.120;17.114;2022-11-20T13:09:32;100979.87;;;25.57;21.72
42511;BME280;28141;51.120;17.114;2022-11-20T13:12:45;100969.52;;;25.64;21.31
42511;BME280;28141;51.120;17.114;2022-11-20T13:16:01;100971.84;;;25.78;21.65
42511;BME280;28141;51.120;17.114;2022-11-20T13:19:09;100958.19;;;25.89;20.75
42511;BME280;28141;51.120;17.114;2022-11-20T13:22:48;100952.77;;;25.94;21.02
42511;BME280;28141;51.120;17.114;2022-11-20T13:29:11;100936.34;;;26.04;20.70
42511;BME280;28141;51.120;17.114;2022-11-20T13:32:20;100926.40;;;26.19;20.87
42511;BME280;28141;51.120;17.114;2022-11-20T13:35:29;100931.96;;;26.31;20.67
42511;BME280;28141;51.120;17.114;2022-11-20T13:38:59;100934.34;;;26.39;20.72
42511;BME280;28141;51.120;17.114;2022-11-20T13:45:28;100936.30;;;26.67;20.66
42511;BME280;28141;51.120;17.114;2022-11-20T13:48:38;100933.11;;;26.75;20.27
42511;BME280;28141;51.120;17.114;2022-11-20T13:51:48;100921.52;;;26.78;20.24
42511;BME280;28141;51.120;17.114;2022-11-20T14:01:50;100913.88;;;26.57;20.46
42511;BME280;28141;51.120;17.114;2022-11-20T14:04:57;100922.29;;;26.62;20.36
42511;BME280;28141;51.120;17.114;2022-11-20T14:08:04;100913.72;;;26.64;20.25
42511;BME280;28141;51.120;17.114;2022-11-20T14:11:33;100921.13;;;26.58;20.38
42511;BME280;28141;51.120;17.114;2022-11-20T14:14:47;100901.08;;;26.56;20.11
42511;BME280;28141;51.120;17.114;2022-11-20T14:17:49;100896.50;;;26.50;20.66
42511;BME280;28141;51.120;17.114;2022-11-20T14:20:52;100897.50;;;26.44;20.48
42511;BME280;28141;51.120;17.114;2022-11-20T14:24:05;100896.66;;;26.43;20.84
42511;BME280;28141;51.120;17.114;2022-11-20T14:27:13;100905.88;;;26.32;20.47
42511;BME280;28141;51.120;17.114;2022-11-20T14:30:47;100898.15;;;26.23;20.68
42511;BME280;28141;51.120;17.114;2022-11-20T14:33:52;100903.10;;;26.21;20.79
42511;BME280;28141;51.120;17.114;2022-11-20T14:37:02;100891.30;;;26.13;20.62
42511;BME280;28141;51.120;17.114;2022-11-20T14:43:23;100900.64;;;25.96;20.77
42511;BME280;28141;51.120;17.114;2022-11-20T14:46:52;100896.53;;;25.87;20.98
42511;BME280;28141;51.120;17.114;2022-11-20T14:50:38;100897.37;;;25.87;21.25
42511;BME280;28141;51.120;17.114;2022-11-20T14:53:42;100894.98;;;25.79;21.39
42511;BME280;28141;51.120;17.114;2022-11-20T14:56:58;100893.43;;;25.71;21.33
42511;BME280;28141;51.120;17.114;2022-11-20T15:03:46;100886.54;;;25.51;21.27
42511;BME280;28141;51.120;17.114;2022-11-20T15:06:53;100887.25;;;25.46;21.08
42511;BME280;28141;51.120;17.114;2022-11-20T15:10:07;100888.71;;;25.49;21.37
42511;BME280;28141;51.120;17.114;2022-11-20T15:13:16;100886.40;;;25.34;21.35
42511;BME280;28141;51.120;17.114;2022-11-20T15:16:23;100892.92;;;25.28;21.13
42511;BME280;28141;51.120;17.114;2022-11-20T15:19:55;100889.91;;;25.29;21.47
42511;BME280;28141;51.120;17.114;2022-11-20T15:22:59;100891.09;;;25.22;21.46
42511;BME280;28141;51.120;17.114;2022-11-20T15:26:05;100886.51;;;25.16;21.41
42511;BME280;28141;51.120;17.114;2022-11-20T15:29:14;100887.71;;;25.08;21.70
42511;BME280;28141;51.120;17.114;2022-11-20T15:32:21;100893.00;;;24.98;21.66
42511;BME280;28141;51.120;17.114;2022-11-20T15:35:25;100889.61;;;24.96;22.00
42511;BME280;28141;51.120;17.114;2022-11-20T15:38:28;100888.24;;;24.87;21.54
42511;BME280;28141;51.120;17.114;2022-11-20T15:41:57;100883.40;;;24.82;21.88
42511;BME280;28141;51.120;17.114;2022-11-20T15:45:00;100888.09;;;24.82;22.01
42511;BME280;28141;51.120;17.114;2022-11-20T15:48:09;100881.81;;;24.74;21.76
42511;BME280;28141;51.120;17.114;2022-11-20T15:51:24;100886.70;;;24.61;22.07
42511;BME280;28141;51.120;17.114;2022-11-20T15:54:29;100889.33;;;24.56;21.98
42511;BME280;28141;51.120;17.114;2022-11-20T15:57:32;100892.35;;;24.54;21.89
42511;BME280;28141;51.120;17.114;2022-11-20T16:01:02;100886.04;;;24.47;22.18
42511;BME280;28141;51.120;17.114;2022-11-20T16:04:10;100887.66;;;24.55;22.27
42511;BME280;28141;51.120;17.114;2022-11-20T16:07:14;100871.86;;;24.55;22.15
42511;BME280;28141;51.120;17.114;2022-11-20T16:10:18;100886.04;;;24.47;22.69
42511;BME280;28141;51.120;17.114;2022-11-20T16:13:26;100877.97;;;24.46;22.17
42511;BME280;28141;51.120;17.114;2022-11-20T16:16:42;100872.25;;;24.29;22.37
42511;BME280;28141;51.120;17.114;2022-11-20T16:20:12;100880.55;;;24.29;22.37
42511;BME280;28141;51.120;17.114;2022-11-20T16:23:15;100875.94;;;24.23;22.29
42511;BME280;28141;51.120;17.114;2022-11-20T16:26:19;100881.77;;;24.15;22.42
42511;BME280;28141;51.120;17.114;2022-11-20T16:29:23;100869.77;;;24.21;22.42
42511;BME280;28141;51.120;17.114;2022-11-20T16:32:26;100871.93;;;24.19;22.43
42511;BME280;28141;51.120;17.114;2022-11-20T16:35:30;100879.55;;;24.23;22.38
42511;BME280;28141;51.120;17.114;2022-11-20T16:38:34;100865.55;;;24.18;22.49
42511;BME280;28141;51.120;17.114;2022-11-20T16:41:37;100875.94;;;24.05;22.51
42511;BME280;28141;51.120;17.114;2022-11-20T16:45:10;100870.39;;;24.05;22.62
42511;BME280;28141;51.120;17.114;2022-11-20T16:48:15;100868.57;;;23.98;22.65
42511;BME280;28141;51.120;17.114;2022-11-20T16:51:19;100874.56;;;23.95;22.72
42511;BME280;28141;51.120;17.114;2022-11-20T16:54:23;100869.19;;;24.00;22.76
42511;BME280;28141;51.120;17.114;2022-11-20T16:57:30;100868.34;;;24.00;22.70
42511;BME280;28141;51.120;17.114;2022-11-20T17:00:38;100873.03;;;23.99;22.71
42511;BME280;28141;51.120;17.114;2022-11-20T17:03:43;100871.96;;;24.00;22.61
42511;BME280;28141;51.120;17.114;2022-11-20T17:06:49;100864.49;;;24.01;22.63
42511;BME280;28141;51.120;17.114;2022-11-20T17:10:19;100872.25;;;23.92;22.69
42511;BME280;28141;51.120;17.114;2022-11-20T17:13:23;100870.55;;;23.91;22.79
42511;BME280;28141;51.120;17.114;2022-11-20T17:16:26;100864.96;;;23.98;22.69
42511;BME280;28141;51.120;17.114;2022-11-20T17:19:30;100866.80;;;23.86;22.79
42511;BME280;28141;51.120;17.114;2022-11-20T17:22:33;100872.25;;;23.92;22.63
42511;BME280;28141;51.120;17.114;2022-11-20T17:25:36;100882.69;;;23.90;22.87
42511;BME280;28141;51.120;17.114;2022-11-20T17:28:40;100883.40;;;23.86;22.59
42511;BME280;28141;51.120;17.114;2022-11-20T17:31:43;100886.79;;;23.88;22.67
42511;BME280;28141;51.120;17.114;2022-11-20T17:34:48;100890.47;;;23.82;22.83
42511;BME280;28141;51.120;17.114;2022-11-20T17:38:17;100899.15;;;23.85;22.81
42511;BME280;28141;51.120;17.114;2022-11-20T17:41:22;100893.93;;;23.95;22.72
42511;BME280;28141;51.120;17.114;2022-11-20T17:44:27;100903.16;;;23.89;22.70
42511;BME280;28141;51.120;17.114;2022-11-20T17:47:30;100895.31;;;23.86;22.68
42511;BME280;28141;51.120;17.114;2022-11-20T17:50:34;100890.23;;;23.83;22.85
42511;BME280;28141;51.120;17.114;2022-11-20T17:53:40;100885.15;;;23.80;22.88